createdAt,value
2022-10-09T00:00:01.160Z,11.43
2022-10-09T00:02:41.288Z,9.68
2022-10-09T00:05:11.919Z,6.18
2022-10-09T00:10:12.176Z,5.70
2022-10-09T00:15:12.721Z,5.40
2022-10-09T00:17:42.761Z,9.43
2022-10-09T00:20:13.764Z,9.65
2022-10-09T00:22:44.795Z,5.65
2022-10-09T00:25:15.350Z,6.07
2022-10-09T00:27:45.155Z,4.53
2022-10-09T00:30:15.665Z,10.55
2022-10-09T00:32:45.999Z,12.48
2022-10-09T00:35:16.599Z,5.65
2022-10-09T00:37:46.701Z,7.60
2022-10-09T00:40:18.295Z,8.18
2022-10-09T00:42:50.119Z,8.45
2022-10-09T00:45:23.411Z,8.65
2022-10-09T00:48:13.721Z,5.80
2022-10-09T00:53:21.928Z,11.63
2022-10-09T00:55:53.523Z,9.05
2022-10-09T00:58:25.127Z,21.20
2022-10-09T01:00:55.954Z,17.55
2022-10-09T01:03:25.989Z,25.70
2022-10-09T01:06:02.400Z,15.35
2022-10-09T01:08:50.511Z,9.32
2022-10-09T01:11:54.682Z,8.38
2022-10-09T01:14:33.152Z,9.70
2022-10-09T01:17:27.797Z,10.10
2022-10-09T01:20:16.011Z,15.27
2022-10-09T01:23:09.167Z,13.18
2022-10-09T01:26:21.338Z,14.35
2022-10-09T01:28:56.979Z,16.02
2022-10-09T01:31:31.362Z,12.10
2022-10-09T01:34:03.256Z,19.33
2022-10-09T01:36:34.188Z,25.83
2022-10-09T01:39:06.919Z,16.88
2022-10-09T01:41:37.111Z,11.50
2022-10-09T01:44:20.982Z,8.93
2022-10-09T01:46:51.322Z,9.88
2022-10-09T01:49:30.205Z,8.95
2022-10-09T01:52:05.608Z,8.40
2022-10-09T01:55:01.590Z,8.82
2022-10-09T01:57:54.601Z,7.47
2022-10-09T02:00:25.179Z,8.20
2022-10-09T02:02:56.710Z,9.05
2022-10-09T02:05:30.291Z,8.02
2022-10-09T02:08:00.727Z,6.40
2022-10-09T02:10:32.068Z,8.10
2022-10-09T02:13:03.047Z,7.35
2022-10-09T02:15:57.122Z,9.85
2022-10-09T02:18:43.125Z,5.57
2022-10-09T02:21:19.923Z,8.15
2022-10-09T02:23:52.311Z,9.40
2022-10-09T02:26:23.210Z,9.00
2022-10-09T02:31:32.004Z,9.43
2022-10-09T02:34:05.984Z,8.63
2022-10-09T02:36:37.475Z,10.40
2022-10-09T02:39:08.454Z,7.60
2022-10-09T02:41:39.130Z,9.60
2022-10-09T02:46:41.696Z,8.27
2022-10-09T02:49:11.808Z,7.90
2022-10-09T02:51:42.433Z,13.23
2022-10-09T02:56:41.783Z,7.85
2022-10-09T02:59:12.194Z,11.68
2022-10-09T03:01:42.322Z,13.25
2022-10-09T03:04:12.756Z,11.18
2022-10-09T03:06:42.727Z,9.60
2022-10-09T03:09:13.072Z,11.07
2022-10-09T03:11:43.163Z,8.88
2022-10-09T03:14:13.642Z,9.52
2022-10-09T03:16:43.656Z,11.13
2022-10-09T03:21:43.522Z,12.30
2022-10-09T03:24:13.578Z,14.30
2022-10-09T03:26:43.914Z,11.52
2022-10-09T03:29:13.891Z,13.90
2022-10-09T03:31:52.466Z,11.85
2022-10-09T03:34:23.034Z,11.18
2022-10-09T03:39:22.526Z,10.20
2022-10-09T03:41:52.538Z,8.32
2022-10-09T03:46:53.712Z,8.52
2022-10-09T03:49:24.102Z,13.75
2022-10-09T03:51:54.105Z,8.70
2022-10-09T03:54:24.463Z,14.73
2022-10-09T03:56:54.310Z,7.57
2022-10-09T03:59:24.700Z,8.30
2022-10-09T04:01:55.467Z,5.60
2022-10-09T04:04:25.308Z,7.40
2022-10-09T04:06:55.798Z,9.55
2022-10-09T04:09:25.824Z,8.30
2022-10-09T04:11:59.191Z,13.23
2022-10-09T04:14:29.199Z,10.48
2022-10-09T04:16:59.654Z,7.43
2022-10-09T04:19:29.815Z,11.35
2022-10-09T04:22:00.476Z,11.25
2022-10-09T04:26:59.704Z,9.23
2022-10-09T04:29:30.201Z,8.00
2022-10-09T04:32:00.515Z,9.35
2022-10-09T04:34:31.005Z,13.82
2022-10-09T04:37:01.166Z,10.73
2022-10-09T04:39:31.680Z,10.80
2022-10-09T04:42:01.685Z,10.25
2022-10-09T04:44:32.132Z,12.27
2022-10-09T04:47:02.196Z,9.77
2022-10-09T04:49:32.650Z,5.75
2022-10-09T04:52:02.672Z,11.00
2022-10-09T04:54:34.023Z,4.10
2022-10-09T04:57:04.590Z,7.35
2022-10-09T04:59:35.982Z,6.55
2022-10-09T05:02:06.144Z,8.73
2022-10-09T05:04:36.959Z,11.10
2022-10-09T05:09:36.278Z,10.73
2022-10-09T05:12:06.847Z,9.75
2022-10-09T05:14:36.947Z,13.27
2022-10-09T05:17:15.185Z,8.35
2022-10-09T05:19:45.696Z,10.90
2022-10-09T05:22:16.179Z,10.63
2022-10-09T05:24:46.178Z,10.60
2022-10-09T05:27:16.680Z,8.90
2022-10-09T05:29:46.715Z,7.88
2022-10-09T05:32:17.171Z,11.45
2022-10-09T05:34:47.239Z,7.90
2022-10-09T05:37:17.686Z,12.02
2022-10-09T05:39:47.739Z,7.40
2022-10-09T05:42:18.205Z,6.60
2022-10-09T05:44:48.258Z,8.43
2022-10-09T05:47:20.809Z,5.82
2022-10-09T05:49:50.810Z,7.63
2022-10-09T05:52:21.263Z,6.43
2022-10-09T05:54:51.992Z,7.60
2022-10-09T05:57:22.425Z,7.55
2022-10-09T05:59:52.207Z,4.28
2022-10-09T06:02:22.709Z,4.47
2022-10-09T06:04:58.046Z,4.32
2022-10-09T06:07:48.972Z,6.20
2022-10-09T06:10:19.158Z,2.38
2022-10-09T06:12:49.896Z,5.60
2022-10-09T06:15:20.141Z,4.10
2022-10-09T06:17:50.624Z,1.23
2022-10-09T06:20:20.673Z,5.22
2022-10-09T06:22:51.327Z,5.28
2022-10-09T06:25:21.638Z,5.53
2022-10-09T06:27:52.150Z,3.58
2022-10-09T06:30:22.156Z,1.92
2022-10-09T06:32:52.661Z,2.80
2022-10-09T06:35:22.720Z,4.47
2022-10-09T06:37:53.209Z,5.22
2022-10-09T06:40:23.347Z,2.20
2022-10-09T06:42:53.834Z,6.55
2022-10-09T06:45:25.374Z,4.07
2022-10-09T06:47:55.822Z,3.95
2022-10-09T06:50:25.869Z,4.28
2022-10-09T06:52:56.337Z,6.60
2022-10-09T06:55:28.712Z,3.60
2022-10-09T06:57:59.609Z,4.45
2022-10-09T07:00:29.698Z,3.40
2022-10-09T07:03:00.478Z,4.13
2022-10-09T07:07:59.933Z,2.13
2022-10-09T07:10:30.302Z,7.72
2022-10-09T07:13:00.295Z,2.33
2022-10-09T07:18:00.111Z,1.98
2022-10-09T07:20:30.109Z,3.78
2022-10-09T07:25:29.738Z,5.93
2022-10-09T07:27:59.754Z,4.40
2022-10-09T07:30:30.180Z,2.83
2022-10-09T07:33:00.201Z,3.20
2022-10-09T07:38:03.380Z,1.98
2022-10-09T07:40:36.251Z,2.95
2022-10-09T07:43:06.604Z,2.85
2022-10-09T07:45:37.351Z,6.05
2022-10-09T07:48:08.039Z,5.57
2022-10-09T07:50:38.169Z,3.35
2022-10-09T07:53:09.907Z,2.45
2022-10-09T07:55:50.116Z,4.65
2022-10-09T07:58:23.685Z,0.35
2022-10-09T08:00:54.438Z,0.40
2022-10-09T08:03:25.824Z,0.80
2022-10-09T08:05:59.199Z,4.32
2022-10-09T08:08:31.226Z,4.78
2022-10-09T08:11:01.942Z,4.82
2022-10-09T08:13:32.288Z,4.10
2022-10-09T08:16:02.374Z,2.58
2022-10-09T08:21:04.472Z,3.05
2022-10-09T08:23:35.036Z,2.88
2022-10-09T08:26:06.561Z,3.28
2022-10-09T08:28:37.150Z,1.15
2022-10-09T08:31:18.412Z,1.20
2022-10-09T08:33:49.387Z,3.17
2022-10-09T08:36:19.374Z,4.80
2022-10-09T08:38:49.366Z,1.77
2022-10-09T08:44:07.902Z,2.63
2022-10-09T08:46:59.328Z,1.42
2022-10-09T08:49:51.582Z,3.40
2022-10-09T08:52:49.131Z,3.60
2022-10-09T08:55:30.386Z,0.65
2022-10-09T08:58:06.394Z,0.75
2022-10-09T09:00:46.119Z,2.90
2022-10-09T09:03:34.631Z,1.42
2022-10-09T09:06:26.241Z,1.80
2022-10-09T09:09:27.575Z,2.28
2022-10-09T09:12:05.771Z,0.57
2022-10-09T09:14:57.702Z,1.80
2022-10-09T09:18:01.027Z,3.95
2022-10-09T09:20:50.431Z,3.70
2022-10-09T09:23:38.845Z,4.13
2022-10-09T09:26:23.414Z,3.88
2022-10-09T09:28:59.886Z,6.07
2022-10-09T09:31:38.186Z,1.98
2022-10-09T09:34:22.072Z,1.13
2022-10-09T09:37:01.907Z,3.15
2022-10-09T09:40:30.935Z,3.45
2022-10-09T09:42:25.154Z,0.75
2022-10-09T09:45:02.783Z,2.40
2022-10-09T09:47:41.758Z,1.88
2022-10-09T09:50:28.611Z,1.95
2022-10-09T09:53:16.041Z,3.05
2022-10-09T09:55:46.159Z,2.20
2022-10-09T10:00:58.246Z,3.55
2022-10-09T10:03:29.432Z,3.08
2022-10-09T10:05:59.751Z,1.80
2022-10-09T10:08:35.081Z,3.05
2022-10-09T10:11:09.334Z,8.02
2022-10-09T10:13:48.033Z,1.33
2022-10-09T10:16:30.514Z,4.57
2022-10-09T10:19:00.952Z,5.30
2022-10-09T10:21:49.364Z,1.25
2022-10-09T10:24:28.806Z,3.30
2022-10-09T10:27:22.413Z,3.63
2022-10-09T10:29:57.626Z,3.00
2022-10-09T10:33:03.071Z,1.60
2022-10-09T10:35:42.169Z,1.40
2022-10-09T10:38:33.043Z,3.50
2022-10-09T10:41:32.880Z,2.05
2022-10-09T10:44:20.047Z,2.42
2022-10-09T10:47:01.433Z,5.82
2022-10-09T10:49:33.918Z,2.30
2022-10-09T10:52:19.147Z,1.85
2022-10-09T10:55:06.750Z,1.60
2022-10-09T10:57:47.190Z,1.65
2022-10-09T11:00:18.477Z,1.77
2022-10-09T11:02:55.655Z,1.50
2022-10-09T11:05:30.062Z,4.75
2022-10-09T11:08:26.455Z,0.65
2022-10-09T11:11:19.581Z,1.25
2022-10-09T11:14:16.578Z,1.65
2022-10-09T11:17:04.310Z,6.10
2022-10-09T11:19:45.097Z,4.03
2022-10-09T11:22:28.712Z,4.57
2022-10-09T11:25:13.002Z,3.33
2022-10-09T11:27:58.779Z,3.47
2022-10-09T11:30:34.252Z,1.63
2022-10-09T11:33:25.684Z,4.57
2022-10-09T11:36:05.723Z,3.17
2022-10-09T11:38:40.917Z,2.20
2022-10-09T11:41:14.254Z,1.05
2022-10-09T11:43:59.246Z,3.15
2022-10-09T11:46:53.424Z,4.20
2022-10-09T11:49:39.021Z,2.65
2022-10-09T11:52:44.415Z,4.05
2022-10-09T11:55:25.947Z,2.15
2022-10-09T11:57:56.351Z,1.90
2022-10-09T12:00:39.489Z,1.50
2022-10-09T12:05:50.755Z,2.80
2022-10-09T12:08:28.810Z,4.40
2022-10-09T12:11:14.650Z,2.28
2022-10-09T12:13:52.778Z,8.38
2022-10-09T12:16:37.763Z,6.47
2022-10-09T12:19:54.544Z,2.90
2022-10-09T12:22:32.225Z,3.22
2022-10-09T12:25:25.308Z,5.60
2022-10-09T12:27:57.545Z,4.50
2022-10-09T12:30:47.586Z,7.18
2022-10-09T12:33:31.822Z,3.85
2022-10-09T12:36:29.190Z,3.55
2022-10-09T12:38:59.761Z,2.00
2022-10-09T12:41:35.869Z,5.18
2022-10-09T12:44:08.554Z,3.33
2022-10-09T12:46:40.732Z,8.52
2022-10-09T12:49:22.019Z,6.47
2022-10-09T12:51:57.719Z,1.20
2022-10-09T12:54:31.292Z,2.90
2022-10-09T12:57:04.274Z,4.47
2022-10-09T12:59:35.073Z,3.30
2022-10-09T13:02:05.696Z,3.67
2022-10-09T13:04:36.451Z,3.75
2022-10-09T13:07:21.318Z,5.22
2022-10-09T13:09:59.134Z,7.13
2022-10-09T13:12:31.313Z,6.90
2022-10-09T13:15:05.683Z,4.57
2022-10-09T13:17:42.795Z,3.47
2022-10-09T13:20:19.028Z,2.00
2022-10-09T13:22:59.400Z,4.57
2022-10-09T13:25:41.816Z,4.22
2022-10-09T13:28:24.647Z,2.85
2022-10-09T13:30:55.216Z,3.92
2022-10-09T13:33:25.267Z,4.30
2022-10-09T13:38:25.873Z,5.97
2022-10-09T13:40:56.654Z,3.13
2022-10-09T13:45:59.186Z,6.05
2022-10-09T13:48:30.669Z,5.65
2022-10-09T13:51:01.302Z,6.63
2022-10-09T13:53:31.252Z,3.85
2022-10-09T13:56:01.386Z,4.72
2022-10-09T13:58:32.347Z,4.32
2022-10-09T14:01:02.694Z,6.70
2022-10-09T14:03:33.762Z,6.25
2022-10-09T14:06:05.357Z,4.82
2022-10-09T14:08:35.681Z,5.63
2022-10-09T14:11:05.820Z,4.18
2022-10-09T14:13:36.370Z,5.00
2022-10-09T14:16:07.859Z,6.25
2022-10-09T14:18:38.311Z,4.97
2022-10-09T14:21:16.247Z,3.97
2022-10-09T14:23:46.613Z,7.82
2022-10-09T14:26:16.650Z,2.78
2022-10-09T14:28:47.048Z,5.47
2022-10-09T14:31:18.691Z,3.78
2022-10-09T14:33:50.138Z,3.78
2022-10-09T14:36:21.377Z,3.92
2022-10-09T14:38:51.987Z,3.90
2022-10-09T14:41:25.176Z,2.08
2022-10-09T14:44:00.566Z,8.20
2022-10-09T14:46:34.989Z,5.55
2022-10-09T14:49:08.431Z,9.07
2022-10-09T14:51:40.695Z,6.32
2022-10-09T14:54:12.656Z,5.13
2022-10-09T14:56:42.828Z,10.75
2022-10-09T14:59:13.168Z,5.85
2022-10-09T15:01:43.318Z,5.90
2022-10-09T15:04:16.166Z,10.65
2022-10-09T15:06:46.202Z,7.05
2022-10-09T15:09:16.693Z,5.53
2022-10-09T15:11:46.785Z,3.53
2022-10-09T15:14:17.173Z,5.15
2022-10-09T15:16:47.382Z,3.75
2022-10-09T15:19:17.726Z,3.55
2022-10-09T15:21:47.894Z,4.97
2022-10-09T15:24:18.234Z,6.07
2022-10-09T15:26:48.419Z,4.35
2022-10-09T15:29:18.856Z,6.45
2022-10-09T15:34:20.661Z,9.85
2022-10-09T15:36:50.777Z,4.00
2022-10-09T15:39:21.146Z,3.78
2022-10-09T15:41:51.202Z,3.92
2022-10-09T15:44:22.457Z,3.97
2022-10-09T15:46:52.534Z,10.88
2022-10-09T15:49:26.100Z,4.53
2022-10-09T15:51:56.211Z,9.45
2022-10-09T15:54:26.638Z,5.28
2022-10-09T15:56:56.734Z,3.90
2022-10-09T15:59:27.175Z,5.97
2022-10-09T16:01:57.208Z,6.22
2022-10-09T16:04:30.587Z,2.78
2022-10-09T16:07:01.219Z,4.18
2022-10-09T16:09:35.928Z,1.77
2022-10-09T16:12:09.435Z,4.20
2022-10-09T16:14:39.538Z,9.23
2022-10-09T16:17:11.517Z,3.90
2022-10-09T16:19:41.685Z,3.55
2022-10-09T16:22:12.171Z,3.33
2022-10-09T16:24:42.182Z,5.80
2022-10-09T16:27:12.818Z,3.85
2022-10-09T16:32:13.530Z,3.05
2022-10-09T16:34:43.546Z,2.80
2022-10-09T16:37:14.100Z,5.57
2022-10-09T16:42:14.421Z,4.60
2022-10-09T16:44:44.658Z,5.53
2022-10-09T16:47:15.299Z,4.03
2022-10-09T16:49:45.395Z,2.30
2022-10-09T16:52:15.221Z,4.60
2022-10-09T16:54:46.800Z,5.13
2022-10-09T16:57:17.003Z,5.53
2022-10-09T16:59:48.470Z,6.72
2022-10-09T17:02:18.831Z,7.28
2022-10-09T17:04:49.867Z,4.15
2022-10-09T17:07:21.758Z,5.82
2022-10-09T17:09:53.706Z,5.00
2022-10-09T17:12:23.726Z,5.57
2022-10-09T17:14:56.873Z,3.97
2022-10-09T17:17:26.968Z,5.13
2022-10-09T17:19:57.463Z,7.90
2022-10-09T17:22:27.563Z,3.53
2022-10-09T17:24:58.458Z,5.47
2022-10-09T17:27:28.594Z,5.55
2022-10-09T17:29:59.027Z,6.97
2022-10-09T17:32:29.118Z,5.97
2022-10-09T17:34:59.550Z,2.90
2022-10-09T17:37:29.694Z,5.25
2022-10-09T17:40:00.162Z,10.23
2022-10-09T17:42:31.306Z,5.32
2022-10-09T17:45:01.856Z,2.90
2022-10-09T17:47:31.960Z,3.75
2022-10-09T17:50:02.600Z,5.72
2022-10-09T17:52:32.813Z,5.63
2022-10-09T17:55:03.267Z,4.10
2022-10-09T17:57:33.090Z,3.80
2022-10-09T18:00:03.566Z,6.93
2022-10-09T18:02:34.285Z,5.35
2022-10-09T18:05:05.110Z,6.00
2022-10-09T18:10:05.283Z,4.25
2022-10-09T18:12:35.308Z,3.58
2022-10-09T18:15:05.767Z,5.80
2022-10-09T18:17:36.263Z,4.55
2022-10-09T18:20:06.835Z,6.47
2022-10-09T18:22:40.624Z,2.30
2022-10-09T18:25:10.807Z,4.07
2022-10-09T18:27:41.503Z,4.88
2022-10-09T18:32:41.276Z,3.92
2022-10-09T18:35:11.783Z,5.70
2022-10-09T18:37:42.030Z,2.47
2022-10-09T18:40:12.847Z,3.15
2022-10-09T18:42:42.898Z,6.03
2022-10-09T18:45:17.321Z,5.18
2022-10-09T18:47:50.480Z,3.42
2022-10-09T18:50:20.948Z,3.97
2022-10-09T18:52:51.304Z,4.72
2022-10-09T18:55:22.986Z,4.55
2022-10-09T18:57:53.146Z,5.32
2022-10-09T19:00:23.571Z,2.60
2022-10-09T19:05:22.984Z,3.17
2022-10-09T19:07:53.545Z,2.90
2022-10-09T19:12:53.708Z,3.20
2022-10-09T19:15:24.360Z,3.80
2022-10-09T19:17:54.337Z,3.97
2022-10-09T19:20:24.252Z,2.92
2022-10-09T19:22:54.665Z,4.88
2022-10-09T19:27:53.867Z,3.15
2022-10-09T19:30:24.241Z,3.75
2022-10-09T19:35:24.748Z,2.40
2022-10-09T19:37:54.850Z,1.35
2022-10-09T19:40:26.180Z,3.30
2022-10-09T19:42:56.152Z,1.80
2022-10-09T19:45:27.261Z,3.97
2022-10-09T19:47:57.523Z,2.83
2022-10-09T19:50:29.095Z,3.13
2022-10-09T19:53:01.689Z,4.80
2022-10-09T19:55:34.748Z,3.83
2022-10-09T19:58:05.627Z,7.05
2022-10-09T20:00:36.294Z,2.60
2022-10-09T20:05:36.148Z,3.88
2022-10-09T20:08:07.758Z,3.00
2022-10-09T20:10:40.944Z,3.22
2022-10-09T20:13:11.298Z,3.42
2022-10-09T20:15:43.986Z,3.95
2022-10-09T20:18:14.484Z,6.28
2022-10-09T20:20:51.167Z,4.28
2022-10-09T20:23:21.791Z,10.10
2022-10-09T20:26:08.677Z,4.93
2022-10-09T20:28:41.098Z,3.60
2022-10-09T20:31:15.802Z,3.45
2022-10-09T20:33:47.734Z,5.50
2022-10-09T20:36:22.158Z,7.85
2022-10-09T20:38:52.758Z,5.05
2022-10-09T20:41:23.260Z,3.22
2022-10-09T20:43:55.078Z,4.05
2022-10-09T20:46:26.250Z,4.95
2022-10-09T20:48:56.959Z,3.22
2022-10-09T20:54:00.037Z,4.50
2022-10-09T20:56:32.489Z,6.18
2022-10-09T20:59:03.547Z,6.38
2022-10-09T21:01:33.718Z,8.02
2022-10-09T21:04:05.911Z,4.75
2022-10-09T21:06:37.173Z,4.53
2022-10-09T21:09:09.540Z,5.63
2022-10-09T21:11:41.406Z,3.00
2022-10-09T21:14:11.960Z,2.15
2022-10-09T21:16:45.041Z,4.28
2022-10-09T21:19:15.620Z,2.60
2022-10-09T21:21:50.690Z,3.15
2022-10-09T21:24:21.684Z,2.70
2022-10-09T21:26:51.715Z,6.75
2022-10-09T21:31:51.632Z,7.03
2022-10-09T21:34:21.651Z,3.47
2022-10-09T21:39:44.038Z,4.85
2022-10-09T21:44:43.567Z,4.47
2022-10-09T21:47:19.780Z,5.38
2022-10-09T21:49:53.153Z,4.07
2022-10-09T21:52:23.329Z,5.68
2022-10-09T21:54:53.752Z,4.95
2022-10-09T21:57:23.805Z,5.75
2022-10-09T22:02:23.550Z,4.55
2022-10-09T22:04:53.508Z,6.43
2022-10-09T22:07:23.974Z,4.82
2022-10-09T22:09:57.752Z,8.05
2022-10-09T22:12:27.926Z,6.00
2022-10-09T22:14:58.590Z,7.50
2022-10-09T22:17:28.726Z,4.22
2022-10-09T22:19:59.265Z,3.13
2022-10-09T22:22:32.519Z,2.95
2022-10-09T22:25:03.062Z,3.67
2022-10-09T22:27:33.136Z,2.63
2022-10-09T22:32:32.991Z,5.57
2022-10-09T22:35:03.006Z,3.50
2022-10-09T22:40:02.769Z,3.72
2022-10-09T22:42:32.960Z,4.45
2022-10-09T22:45:03.582Z,5.50
2022-10-09T22:47:34.914Z,3.38
2022-10-09T22:50:06.070Z,6.00
2022-10-09T22:52:36.297Z,3.47
2022-10-09T22:55:07.215Z,9.15
2022-10-09T22:57:38.539Z,5.05
2022-10-09T23:02:41.803Z,4.85
2022-10-09T23:05:12.337Z,2.92
2022-10-09T23:07:42.180Z,3.90
2022-10-09T23:12:43.820Z,4.03
2022-10-09T23:15:14.405Z,5.20
2022-10-09T23:17:44.354Z,5.25
2022-10-09T23:20:14.760Z,5.82
2022-10-09T23:22:44.983Z,5.20
2022-10-09T23:25:15.458Z,4.22
2022-10-09T23:27:45.495Z,6.20
2022-10-09T23:30:16.138Z,3.70
2022-10-09T23:32:46.310Z,9.13
2022-10-09T23:35:16.813Z,4.57
2022-10-09T23:37:46.931Z,3.35
2022-10-09T23:42:47.506Z,7.35
2022-10-09T23:45:19.160Z,3.17
2022-10-09T23:47:49.206Z,9.23
2022-10-09T23:50:20.136Z,4.68
2022-10-09T23:55:20.502Z,5.50
2022-10-09T23:57:52.419Z,9.48
